Terminal Aerodrome Forecast
Issued by NWS Louisville, KY

Home | Current Version | Previous Version | Text Only | Print | Product List | Glossary On
Versions: 1 2 3 4 5 6 7 8 9 10 11 12 13 14 15 16 17 18 19
271
FTUS43 KLMK 211120
TAFLEX
TAF
KLEX 211120Z 2112/2212 31006KT P6SM VCSH BKN012
     FM211700 34008KT P6SM VCSH BKN050
     FM220700 03011KT 6SM -SHRA OVC015=

USA.gov is the U.S. government's official web portal to all federal, state and local government web resources and services.